Time;durP1;ratioP1;P1;durP2;ratioP2;P2;SDS_P1;SDS_P2;PMS_P1;PMS_P2;Temp;Humidity;BMP_temperature;BMP_pressure;BME280_temperature;BME280_humidity;BME280_pressure;Samples;Min_cycle;Max_cycle;Signal;HPM_P1;HPM_P2
2021/12/25 00:01:10;;;;;;;33.33;20.37;;;;;;;7.98;65.60;98728.53;4359968;32;31100;-77
2021/12/25 00:03:38;;;;;;;31.33;20.92;;;;;;;7.98;65.32;98732.12;4359362;32;33450;-77
2021/12/25 00:06:06;;;;;;;33.22;20.52;;;;;;;7.92;65.41;98732.97;4363733;32;34410;-77
2021/12/25 00:08:34;;;;;;;35.35;22.58;;;;;;;7.98;65.21;98734.00;4369802;32;34172;-77
2021/12/25 00:11:04;;;;;;;31.42;19.45;;;;;;;7.86;65.21;98728.37;4380518;32;34514;-77
2021/12/25 00:13:32;;;;;;;27.48;15.13;;;;;;;7.78;65.55;98729.47;4375076;32;32230;-77
2021/12/25 00:16:00;;;;;;;28.10;17.10;;;;;;;7.63;65.95;98728.87;4380319;32;34723;-77
2021/12/25 00:18:34;;;;;;;27.08;16.20;;;;;;;7.65;65.78;98737.69;4368036;32;32085;-77
2021/12/25 00:21:04;;;;;;;28.92;17.17;;;;;;;7.59;65.79;98744.84;4368052;32;31850;-77
2021/12/25 00:23:32;;;;;;;28.50;16.75;;;;;;;7.45;66.32;98742.34;4380873;32;33724;-77
2021/12/25 00:26:05;;;;;;;27.90;16.62;;;;;;;7.54;66.43;98744.66;4367649;32;33359;-77
2021/12/25 00:31:46;;;;;;;29.02;17.00;;;;;;;7.63;65.97;98736.25;4380951;32;33394;-77
2021/12/25 00:34:00;;;;;;;27.13;16.12;;;;;;;7.60;66.28;98743.81;4382519;32;33833;-77
2021/12/25 00:36:31;;;;;;;26.23;15.68;;;;;;;7.69;66.03;98747.16;4379879;32;34020;-77
2021/12/25 00:39:02;;;;;;;26.20;16.08;;;;;;;7.67;66.29;98742.94;4380304;32;34223;-77
2021/12/25 00:41:29;;;;;;;30.27;15.77;;;;;;;7.59;66.61;98747.59;4380500;32;33523;-77
2021/12/25 00:43:59;;;;;;;27.37;16.00;;;;;;;7.73;66.18;98742.94;4380277;32;33529;-77
2021/12/25 00:46:27;;;;;;;29.70;16.90;;;;;;;7.76;66.12;98750.69;4367743;32;35369;-77
2021/12/25 00:48:58;;;;;;;28.33;15.93;;;;;;;7.73;66.11;98744.81;4379064;32;34175;-77
2021/12/25 00:51:29;;;;;;;25.50;15.10;;;;;;;7.66;66.46;98739.38;4379756;32;33480;-77
2021/12/25 00:53:56;;;;;;;27.85;15.68;;;;;;;7.79;66.04;98746.69;4380201;32;33693;-77
2021/12/25 00:56:24;;;;;;;28.75;16.35;;;;;;;7.65;66.40;98748.63;4380017;32;33113;-77
2021/12/25 00:58:54;;;;;;;26.25;16.12;;;;;;;7.73;66.33;98750.28;4380214;32;34368;-77
2021/12/25 01:01:23;;;;;;;29.27;16.37;;;;;;;7.70;66.35;98757.00;4378647;32;33188;-77
2021/12/25 01:03:52;;;;;;;25.27;16.05;;;;;;;7.82;66.03;98754.44;4361898;32;33960;-77
2021/12/25 01:06:23;;;;;;;29.25;15.82;;;;;;;7.62;66.44;98762.69;4356024;32;35779;-77
2021/12/25 01:08:50;;;;;;;29.65;16.23;;;;;;;7.66;66.31;98757.66;4367896;32;34469;-77
2021/12/25 01:11:19;;;;;;;30.35;15.82;;;;;;;7.67;66.36;98756.59;4355478;32;32743;-77
2021/12/25 01:13:56;;;;;;;26.60;16.45;;;;;;;7.52;66.72;98765.87;4366385;32;33252;-77
2021/12/25 01:16:56;;;;;;;33.08;18.75;;;;;;;7.66;66.49;98768.56;4368226;32;33068;-77
2021/12/25 01:38:02;;;;;;;23.38;14.35;;;;;;;7.83;65.95;98783.44;4354271;32;34512;-77
2021/12/25 01:48:44;;;;;;;22.17;11.90;;;;;;;7.65;66.61;98788.75;4377318;32;34270;-77
2021/12/25 01:51:11;;;;;;;22.73;12.73;;;;;;;7.51;67.16;98794.22;4376806;32;33914;-77
2021/12/25 01:53:40;;;;;;;24.58;13.85;;;;;;;7.59;66.99;98790.44;4364596;32;34181;-77
2021/12/25 01:56:10;;;;;;;21.65;12.65;;;;;;;7.63;66.86;98788.13;4351951;32;33827;-77
2021/12/25 01:58:38;;;;;;;20.92;13.15;;;;;;;7.55;67.11;98792.75;4376442;32;34504;-77
2021/12/25 02:01:09;;;;;;;19.85;11.50;;;;;;;7.65;66.94;98791.47;4352358;32;34646;-77
2021/12/25 02:03:38;;;;;;;22.08;14.65;;;;;;;7.70;66.79;98794.41;4364462;32;33468;-77
2021/12/25 02:06:11;;;;;;;21.65;13.65;;;;;;;7.72;66.78;98786.84;4364151;32;34087;-77
2021/12/25 02:08:41;;;;;;;21.08;13.05;;;;;;;7.76;66.83;98788.94;4364611;32;35226;-77
2021/12/25 02:11:10;;;;;;;21.98;13.05;;;;;;;7.61;67.38;98793.78;4364300;32;33352;-77
2021/12/25 02:13:43;;;;;;;25.33;15.05;;;;;;;7.76;66.90;98785.38;4364802;32;33727;-77
2021/12/25 02:16:17;;;;;;;25.00;15.27;;;;;;;7.77;66.97;98768.78;4377240;32;33890;-77
2021/12/25 02:19:07;;;;;;;24.30;14.60;;;;;;;7.64;67.09;98779.72;4340671;32;33914;-77
2021/12/25 02:21:40;;;;;;;23.27;14.52;;;;;;;7.79;66.63;98780.31;4354566;32;34052;-77
2021/12/25 02:24:11;;;;;;;27.65;15.40;;;;;;;7.82;66.61;98779.88;4351779;32;31834;-77
2021/12/25 02:26:43;;;;;;;32.05;18.98;;;;;;;7.88;66.42;98787.22;4352896;32;33796;-77
2021/12/25 02:29:14;;;;;;;30.40;19.65;;;;;;;7.77;66.87;98782.44;4364456;32;35360;-77
2021/12/25 02:31:42;;;;;;;26.58;16.25;;;;;;;7.71;67.05;98780.53;4376967;32;34596;-77
2021/12/25 02:34:10;;;;;;;24.70;14.70;;;;;;;7.91;66.43;98780.47;4364692;32;34461;-77
2021/12/25 02:36:40;;;;;;;23.23;14.00;;;;;;;7.83;66.52;98775.25;4363547;32;33968;-77
2021/12/25 02:39:14;;;;;;;21.55;12.98;;;;;;;7.86;66.54;98761.16;4363717;32;35191;-77
2021/12/25 02:41:50;;;;;;;23.67;14.52;;;;;;;7.91;66.36;98764.09;4364600;32;34071;-77
2021/12/25 02:44:18;;;;;;;25.70;16.25;;;;;;;7.91;66.35;98769.53;4376257;32;33353;-77
2021/12/25 02:46:52;;;;;;;26.27;15.63;;;;;;;7.90;66.31;98778.78;4352265;32;33882;-77
2021/12/25 02:49:24;;;;;;;23.35;15.25;;;;;;;7.81;66.37;98775.44;4351740;32;33031;-77
2021/12/25 02:51:57;;;;;;;21.12;12.25;;;;;;;7.67;66.70;98767.53;4364237;32;33893;-77
2021/12/25 02:54:25;;;;;;;22.10;11.38;;;;;;;7.70;66.39;98767.94;4352261;32;33248;-77
2021/12/25 02:56:53;;;;;;;17.30;10.10;;;;;;;7.44;66.52;98766.09;4363682;32;34107;-77
2021/12/25 02:59:21;;;;;;;18.52;10.88;;;;;;;7.66;66.13;98772.16;4363734;32;33037;-77
2021/12/25 03:02:10;;;;;;;19.50;10.70;;;;;;;7.58;66.11;98781.41;4353710;32;32378;-77
2021/12/25 03:04:40;;;;;;;24.58;14.60;;;;;;;7.61;65.78;98780.13;4376556;32;33415;-77
2021/12/25 03:07:08;;;;;;;38.83;20.98;;;;;;;7.72;65.50;98771.31;4376281;32;34483;-77
2021/12/25 03:09:37;;;;;;;24.58;14.20;;;;;;;7.55;65.70;98765.44;4363794;32;34687;-77
2021/12/25 03:12:08;;;;;;;20.62;11.88;;;;;;;7.56;65.31;98767.13;4375740;32;34513;-77
2021/12/25 03:14:40;;;;;;;23.27;12.70;;;;;;;7.45;65.33;98769.66;4351772;32;33289;-77
2021/12/25 03:17:07;;;;;;;26.17;14.02;;;;;;;7.33;65.32;98766.72;4364093;32;33151;-77
2021/12/25 03:19:35;;;;;;;25.23;15.02;;;;;;;7.30;65.11;98764.41;4363814;32;35587;-77
2021/12/25 03:22:06;;;;;;;45.75;26.25;;;;;;;7.35;64.81;98764.63;4363973;32;33483;-77
2021/12/25 03:24:37;;;;;;;35.70;19.67;;;;;;;7.24;64.81;98766.09;4351842;32;33497;-77
2021/12/25 03:27:10;;;;;;;19.95;11.82;;;;;;;7.04;65.37;98772.63;4351352;32;33431;-77
2021/12/25 03:29:40;;;;;;;20.05;12.50;;;;;;;6.92;65.91;98781.41;4375842;32;35597;-76
2021/12/25 03:32:11;;;;;;;23.45;13.50;;;;;;;7.06;65.53;98768.63;4375083;32;34006;-76
2021/12/25 03:34:38;;;;;;;22.80;13.20;;;;;;;7.14;65.05;98768.44;4376017;32;33581;-77
2021/12/25 03:37:06;;;;;;;27.20;14.48;;;;;;;7.17;64.80;98769.88;4363173;32;32375;-77
2021/12/25 03:39:39;;;;;;;22.50;13.73;;;;;;;7.13;64.69;98763.19;4364431;32;33052;-77
2021/12/25 03:42:08;;;;;;;23.55;12.88;;;;;;;6.98;65.02;98784.34;4364772;32;32538;-77
2021/12/25 03:44:36;;;;;;;17.70;9.57;;;;;;;7.01;65.05;98782.06;4365334;32;33349;-77
2021/12/25 03:47:13;;;;;;;14.63;9.38;;;;;;;7.01;65.21;98786.66;4365138;32;33606;-77
2021/12/25 03:58:08;;;;;;;23.52;14.10;;;;;;;6.90;65.55;98815.41;4377625;32;33765;-76
2021/12/25 04:00:37;;;;;;;29.90;16.95;;;;;;;6.99;65.17;98819.63;4366113;32;35146;-77
2021/12/25 04:03:10;;;;;;;27.95;16.58;;;;;;;6.97;65.27;98818.97;4365553;32;33782;-77
2021/12/25 04:05:40;;;;;;;26.37;15.30;;;;;;;6.98;65.44;98817.09;4378619;32;33390;-77
2021/12/25 04:08:14;;;;;;;21.37;13.40;;;;;;;6.99;65.40;98830.53;4376767;32;34353;-77
2021/12/25 04:10:44;;;;;;;22.75;15.00;;;;;;;7.05;65.37;98826.13;4365682;32;34469;-77
2021/12/25 04:13:15;;;;;;;25.37;15.93;;;;;;;7.06;65.27;98830.53;4364914;32;34028;-76
2021/12/25 04:15:45;;;;;;;22.10;13.60;;;;;;;7.03;65.30;98830.94;4365292;32;33440;-77
2021/12/25 04:18:16;;;;;;;22.92;14.48;;;;;;;7.09;65.25;98830.13;4377693;32;34525;-77
2021/12/25 04:20:44;;;;;;;21.37;13.05;;;;;;;7.15;64.96;98818.38;4377584;32;34460;-77
2021/12/25 04:23:21;;;;;;;19.15;11.90;;;;;;;7.21;64.89;98828.44;4365286;32;33777;-76
2021/12/25 04:25:49;;;;;;;18.58;11.40;;;;;;;7.03;65.57;98833.69;4366569;32;32795;-76
2021/12/25 04:28:36;;;;;;;19.05;11.32;;;;;;;7.05;65.55;98820.66;4364711;32;33810;-77
2021/12/25 04:48:25;;;;;;;18.48;11.77;;;;;;;7.02;66.44;98802.00;4380837;32;33520;-76
2021/12/25 05:04:57;;;;;;;18.73;9.30;;;;;;;7.25;66.05;98799.69;4382140;32;34547;-76
2021/12/25 05:07:13;;;;;;;16.15;9.23;;;;;;;7.20;65.89;98794.84;4382742;32;34848;-76
2021/12/25 05:09:46;;;;;;;13.62;8.32;;;;;;;7.05;66.25;98804.31;4367395;32;33449;-76
2021/12/25 05:12:14;;;;;;;13.30;7.65;;;;;;;7.10;65.77;98797.19;4367764;32;33786;-77
2021/12/25 05:14:45;;;;;;;15.35;8.85;;;;;;;7.09;65.66;98805.56;4367779;32;34242;-77
2021/12/25 05:17:18;;;;;;;14.35;8.88;;;;;;;7.11;65.52;98803.47;4366872;32;32611;-77
2021/12/25 05:19:49;;;;;;;13.27;8.18;;;;;;;7.09;65.40;98802.84;4368052;32;33542;-77
2021/12/25 05:22:18;;;;;;;13.23;8.10;;;;;;;7.06;65.31;98809.56;4354909;32;32217;-77
2021/12/25 05:24:48;;;;;;;13.65;8.20;;;;;;;6.99;65.32;98803.25;4380057;32;34656;-77
2021/12/25 05:27:18;;;;;;;11.80;7.40;;;;;;;7.01;65.13;98812.06;4367839;32;33916;-77
2021/12/25 05:29:47;;;;;;;14.32;7.72;;;;;;;6.72;65.97;98818.69;4380246;32;33568;-77
2021/12/25 05:32:17;;;;;;;14.20;8.27;;;;;;;6.86;65.84;98825.88;4379593;32;33244;-77
2021/12/25 05:34:45;;;;;;;16.80;9.35;;;;;;;6.80;66.20;98821.25;4368061;32;34511;-77
2021/12/25 05:37:14;;;;;;;21.52;12.13;;;;;;;6.97;65.62;98821.72;4367503;32;34996;-77
2021/12/25 05:39:49;;;;;;;24.45;12.05;;;;;;;7.00;65.36;98820.44;4379719;32;33524;-77
2021/12/25 05:42:22;;;;;;;21.95;13.05;;;;;;;6.88;65.41;98822.94;4368191;32;34395;-78
2021/12/25 05:44:53;;;;;;;14.38;8.45;;;;;;;6.89;65.09;98817.28;4379463;32;34213;-77
2021/12/25 05:47:22;;;;;;;13.18;7.75;;;;;;;6.74;65.46;98815.78;4367562;32;34848;-77
2021/12/25 05:49:49;;;;;;;15.45;8.27;;;;;;;6.76;65.36;98819.13;4367688;32;33376;-77
2021/12/25 05:52:18;;;;;;;18.08;8.70;;;;;;;6.78;65.14;98817.88;4379404;32;33943;-77
2021/12/25 05:54:46;;;;;;;14.90;8.70;;;;;;;6.79;64.89;98816.84;4367704;32;32917;-77
2021/12/25 05:57:14;;;;;;;15.07;8.57;;;;;;;6.78;64.79;98817.03;4367388;32;33845;-77
2021/12/25 05:59:42;;;;;;;14.93;8.98;;;;;;;6.72;64.75;98828.78;4366550;32;34090;-77
2021/12/25 06:02:16;;;;;;;13.57;8.38;;;;;;;6.58;64.95;98827.87;4367643;32;34004;-77
2021/12/25 06:04:45;;;;;;;15.13;9.20;;;;;;;6.75;64.14;98829.19;4367064;32;33202;-77
2021/12/25 06:07:15;;;;;;;14.57;8.68;;;;;;;6.64;64.35;98821.63;4379676;32;34712;-77
2021/12/25 06:09:47;;;;;;;15.07;8.02;;;;;;;6.55;64.44;98828.28;4367864;32;33485;-77
2021/12/25 06:12:18;;;;;;;22.17;10.85;;;;;;;6.49;64.49;98834.59;4367027;32;33948;-77
2021/12/25 06:14:49;;;;;;;49.80;15.85;;;;;;;6.44;64.48;98837.09;4367242;32;35423;-77
2021/12/25 06:17:20;;;;;;;33.85;14.77;;;;;;;6.34;65.03;98844.78;4367078;32;34117;-77
2021/12/25 06:19:48;;;;;;;22.42;11.35;;;;;;;6.34;65.47;98842.91;4367259;32;33328;-77
2021/12/25 06:22:18;;;;;;;18.67;10.40;;;;;;;6.41;65.41;98842.94;4367000;32;33689;-76
2021/12/25 06:24:49;;;;;;;16.60;9.88;;;;;;;6.48;65.13;98843.81;4377485;32;34440;-77
2021/12/25 06:27:19;;;;;;;30.25;12.60;;;;;;;6.50;64.88;98853.44;4367538;32;33969;-77
2021/12/25 06:29:55;;;;;;;28.77;12.35;;;;;;;6.38;65.07;98855.09;4367732;32;33039;-77
2021/12/25 06:32:25;;;;;;;19.48;9.90;;;;;;;6.48;64.46;98855.56;4354615;32;33552;-77
2021/12/25 06:34:53;;;;;;;21.50;10.38;;;;;;;6.46;64.38;98863.09;4360406;32;34502;-77
2021/12/25 06:37:24;;;;;;;26.17;13.40;;;;;;;6.45;64.33;98868.75;4366759;32;32757;-77
2021/12/25 06:39:54;;;;;;;21.83;11.07;;;;;;;6.23;64.90;98874.28;4376799;32;33489;-77
2021/12/25 06:42:26;;;;;;;17.85;9.57;;;;;;;6.21;65.00;98864.63;4376506;32;33378;-77
2021/12/25 06:44:57;;;;;;;20.77;11.38;;;;;;;6.34;64.36;98869.31;4364309;32;34472;-78
2021/12/25 06:47:28;;;;;;;25.12;12.55;;;;;;;6.37;64.41;98879.81;4375191;32;33938;-78
2021/12/25 06:50:04;;;;;;;26.17;11.75;;;;;;;6.12;65.40;98880.31;4362629;32;33549;-77
2021/12/25 06:52:34;;;;;;;29.35;13.43;;;;;;;6.14;65.61;98867.31;4366943;32;34406;-77
2021/12/25 06:55:10;;;;;;;22.05;10.73;;;;;;;6.30;65.44;98881.66;4366697;32;34166;-77
2021/12/25 06:57:46;;;;;;;20.35;9.38;;;;;;;6.30;65.30;98884.38;4366172;32;33591;-77
2021/12/25 07:00:17;;;;;;;20.25;9.55;;;;;;;6.33;65.18;98879.38;4367613;32;33251;-77
2021/12/25 07:02:50;;;;;;;21.33;10.00;;;;;;;6.32;64.98;98882.31;4367236;32;34368;-77
2021/12/25 07:05:25;;;;;;;;;;;;;;;6.24;65.23;98889.59;4379731;32;35580;-77
2021/12/25 07:07:54;;;;;;;21.10;10.50;;;;;;;6.32;64.95;98887.75;4367428;32;35008;-77
2021/12/25 07:10:23;;;;;;;25.83;12.37;;;;;;;6.25;65.06;98894.00;4366386;32;31766;-76
2021/12/25 07:12:53;;;;;;;27.37;13.62;;;;;;;6.22;65.30;98905.31;4379437;32;34564;-77
2021/12/25 07:15:23;;;;;;;26.40;13.75;;;;;;;6.13;65.51;98906.50;4376936;32;34691;-77
2021/12/25 07:17:51;;;;;;;27.35;12.50;;;;;;;6.23;65.68;98908.88;4355007;32;33947;-76
2021/12/25 07:20:19;;;;;;;26.98;13.68;;;;;;;6.31;65.46;98907.88;4370338;32;33418;-77
2021/12/25 07:22:48;;;;;;;27.05;13.70;;;;;;;6.47;65.25;98907.53;4357582;32;33832;-78
2021/12/25 07:25:16;;;;;;;27.05;13.13;;;;;;;6.42;65.70;98907.31;4361048;32;35214;-77
2021/12/25 07:27:51;;;;;;;25.08;13.00;;;;;;;6.54;65.37;98906.50;4378163;32;33917;-78
2021/12/25 07:30:25;;;;;;;27.50;14.30;;;;;;;6.52;65.62;98897.69;4367448;32;33481;-76
2021/12/25 07:32:56;;;;;;;23.12;12.37;;;;;;;6.63;65.46;98904.44;4376627;32;34453;-77
2021/12/25 07:35:23;;;;;;;23.12;13.43;;;;;;;6.59;65.77;98911.34;4386599;32;34373;-77
2021/12/25 07:37:56;;;;;;;30.05;14.63;;;;;;;6.61;66.23;98910.09;4363440;32;34108;-77
2021/12/25 07:40:29;;;;;;;32.30;16.35;;;;;;;6.58;66.70;98915.12;4365020;32;33004;-78
2021/12/25 07:42:57;;;;;;;33.35;17.92;;;;;;;6.68;66.65;98918.31;4353889;32;33880;-78
2021/12/25 07:45:29;;;;;;;34.28;18.00;;;;;;;6.85;66.21;98906.00;4353769;32;34613;-75
2021/12/25 07:48:02;;;;;;;33.25;16.42;;;;;;;6.86;66.44;98910.41;4365579;32;34180;-76
2021/12/25 07:50:34;;;;;;;35.45;19.10;;;;;;;6.93;66.48;98918.63;4354296;32;33475;-76
2021/12/25 07:53:04;;;;;;;36.13;18.95;;;;;;;6.92;66.74;98917.78;4360550;32;34572;-76
2021/12/25 07:55:35;;;;;;;34.25;18.80;;;;;;;7.03;66.69;98926.44;4365383;32;34193;-77
2021/12/25 07:58:08;;;;;;;32.83;18.75;;;;;;;7.04;66.67;98928.97;4367729;32;33976;-78
2021/12/25 08:00:43;;;;;;;35.42;19.80;;;;;;;7.11;66.81;98920.78;4379715;32;33407;-76
2021/12/25 08:03:16;;;;;;;40.72;20.08;;;;;;;7.19;67.36;98915.97;4380549;32;34699;-75
2021/12/25 08:05:49;;;;;;;33.35;17.80;;;;;;;7.33;68.67;98916.84;4380500;32;34538;-77
2021/12/25 08:08:17;;;;;;;52.40;29.85;;;;;;;7.38;69.00;98916.22;4380735;32;33941;-79
2021/12/25 08:10:50;;;;;;;47.72;24.40;;;;;;;8.19;81.75;98919.56;4376803;32;33030;-78
2021/12/25 08:13:18;;;;;;;64.82;42.75;;;;;;;8.40;76.93;98911.16;4361040;32;32367;-76
2021/12/25 08:15:51;;;;;;;49.80;26.65;;;;;;;8.70;78.22;98913.38;4366895;32;34399;-82
2021/12/25 08:18:25;;;;;;;48.20;26.10;;;;;;;9.02;78.90;98917.03;4366040;32;33978;-78
2021/12/25 08:21:05;;;;;;;42.22;23.40;;;;;;;8.99;75.77;98914.72;4357323;32;31959;-78
2021/12/25 08:23:53;;;;;;;45.45;23.38;;;;;;;8.84;73.57;98915.84;4371640;32;32285;-77
2021/12/25 08:26:28;;;;;;;40.00;23.30;;;;;;;8.78;71.75;98915.84;4366111;32;34443;-77
2021/12/25 08:28:58;;;;;;;39.33;22.13;;;;;;;8.70;70.87;98910.63;4342858;32;32510;-77
2021/12/25 08:31:38;;;;;;;51.60;29.35;;;;;;;8.62;70.02;98922.66;4366180;32;33695;-79
2021/12/25 08:34:11;;;;;;;43.50;25.60;;;;;;;8.61;69.31;98920.97;4367736;32;32617;-77
2021/12/25 08:36:40;;;;;;;41.17;24.95;;;;;;;8.46;68.96;98915.75;4374871;32;34650;-75
2021/12/25 08:39:12;;;;;;;48.58;25.15;;;;;;;8.42;68.32;98906.31;4386037;32;34085;-76
2021/12/25 08:41:40;;;;;;;40.45;22.90;;;;;;;8.47;71.75;98900.19;4384005;32;33537;-78
2021/12/25 08:44:33;;;;;;;40.38;24.23;;;;;;;8.69;70.31;98898.84;4377180;32;33713;-77
2021/12/25 08:46:59;;;;;;;41.00;25.48;;;;;;;8.63;69.16;98887.94;4377475;32;32859;-76
2021/12/25 08:49:29;;;;;;;47.47;25.58;;;;;;;8.72;68.30;98887.47;4377190;32;33073;-76
2021/12/25 08:51:59;;;;;;;48.25;28.62;;;;;;;8.74;67.85;98885.34;4364338;32;33222;-78
2021/12/25 08:54:35;;;;;;;41.75;26.85;;;;;;;8.79;67.32;98887.44;4364613;32;33920;-76
2021/12/25 08:57:08;;;;;;;45.45;26.98;;;;;;;8.78;67.09;98889.34;4347463;32;33027;-77
2021/12/25 08:59:39;;;;;;;42.83;26.67;;;;;;;8.85;66.83;98879.22;4360181;32;34480;-77
2021/12/25 09:02:14;;;;;;;46.13;28.25;;;;;;;8.79;66.89;98869.12;4361226;32;33918;-78
2021/12/25 09:04:51;;;;;;;50.88;29.98;;;;;;;8.81;66.65;98866.19;4362741;32;33616;-77
2021/12/25 09:07:18;;;;;;;;;;;;;;;8.88;66.60;98888.87;4363298;32;35399;-77
2021/12/25 09:09:52;;;;;;;49.28;29.20;;;;;;;8.71;67.23;98899.47;4348519;32;34374;-77
2021/12/25 09:12:23;;;;;;;56.35;32.30;;;;;;;8.87;67.00;98895.41;4359777;32;32267;-77
2021/12/25 09:14:57;;;;;;;58.90;31.37;;;;;;;8.94;67.04;98909.06;4347469;32;31968;-77
2021/12/25 09:17:24;;;;;;;60.97;31.52;;;;;;;8.90;67.61;98900.44;4347843;32;33759;-77
2021/12/25 09:19:58;;;;;;;56.08;28.52;;;;;;;8.83;68.05;98895.00;4360857;32;33855;-77
2021/12/25 09:22:34;;;;;;;61.80;29.48;;;;;;;8.94;68.23;98885.28;4349474;32;33564;-77
2021/12/25 09:25:05;;;;;;;55.80;27.98;;;;;;;9.06;68.04;98877.22;4361980;32;33851;-77
2021/12/25 09:27:33;;;;;;;50.67;27.08;;;;;;;9.19;67.77;98883.41;4362439;32;33140;-77
2021/12/25 09:30:04;;;;;;;57.15;30.67;;;;;;;9.34;67.48;98876.81;4362044;32;34710;-77
2021/12/25 09:32:32;;;;;;;52.67;29.42;;;;;;;9.33;67.64;98873.22;4362416;32;33351;-77
2021/12/25 09:35:00;;;;;;;51.45;29.75;;;;;;;9.45;67.49;98876.94;4361712;32;33840;-77
2021/12/25 09:37:32;;;;;;;53.85;31.50;;;;;;;9.59;67.26;98872.22;4362254;32;33694;-77
2021/12/25 09:40:02;;;;;;;52.85;30.05;;;;;;;9.64;67.24;98879.75;4350045;32;34171;-77
2021/12/25 09:42:32;;;;;;;53.95;29.40;;;;;;;9.75;66.99;98868.88;4362678;32;31754;-77
2021/12/25 09:45:06;;;;;;;51.55;29.37;;;;;;;9.85;66.77;98858.25;4353233;32;33652;-77
2021/12/25 09:47:36;;;;;;;47.55;28.98;;;;;;;9.88;66.77;98859.72;4364730;32;34482;-77
2021/12/25 09:50:07;;;;;;;44.92;26.42;;;;;;;9.91;66.70;98857.37;4364825;32;34028;-76
2021/12/25 09:52:43;;;;;;;73.72;35.45;;;;;;;9.96;66.65;98862.16;4352380;32;34057;-77
2021/12/25 09:55:15;;;;;;;61.17;33.17;;;;;;;10.01;66.81;98864.25;4365062;32;34597;-77
2021/12/25 09:57:48;;;;;;;73.18;35.22;;;;;;;10.03;67.05;98862.09;4364961;32;35580;-78
2021/12/25 10:00:23;;;;;;;72.57;33.92;;;;;;;10.12;66.96;98858.00;4364720;32;35221;-77
2021/12/25 10:03:09;;;;;;;65.90;31.90;;;;;;;10.18;66.96;98855.22;4353880;32;31790;-77
2021/12/25 10:05:41;;;;;;;55.38;28.30;;;;;;;10.28;67.09;98856.63;4352674;32;33614;-77
2021/12/25 10:08:17;;;;;;;45.05;24.55;;;;;;;10.45;66.79;98860.41;4352289;32;34418;-78
2021/12/25 10:10:56;;;;;;;44.72;25.23;;;;;;;10.50;66.79;98855.91;4364530;32;34894;-77
2021/12/25 10:13:36;;;;;;;27.67;17.35;;;;;;;10.61;66.61;98869.94;4378013;32;33658;-77
2021/12/25 10:16:24;;;;;;;29.52;15.85;;;;;;;10.63;66.98;98852.19;4363894;32;32346;-77
2021/12/25 10:19:16;;;;;;;27.33;17.08;;;;;;;10.76;66.84;98846.53;4352363;32;34386;-77
2021/12/25 10:21:56;;;;;;;24.60;15.65;;;;;;;10.88;66.64;98846.59;4364393;32;34790;-78
2021/12/25 10:24:28;;;;;;;24.45;16.23;;;;;;;10.96;66.60;98849.03;4351936;32;32767;-77
2021/12/25 10:27:12;;;;;;;26.10;14.57;;;;;;;11.08;66.67;98849.03;4364521;32;33772;-77
2021/12/25 10:29:43;;;;;;;28.58;17.10;;;;;;;11.24;66.77;98848.38;4364535;32;35317;-77
2021/12/25 10:32:23;;;;;;;25.52;15.07;;;;;;;11.31;66.71;98846.38;4352417;32;33922;-77
2021/12/25 10:34:54;;;;;;;23.15;13.77;;;;;;;11.41;66.53;98845.81;4364402;32;34431;-77
2021/12/25 10:37:24;;;;;;;27.13;15.13;;;;;;;11.53;66.49;98846.69;4339548;32;32436;-77
2021/12/25 10:39:55;;;;;;;22.80;13.77;;;;;;;11.65;66.33;98841.22;4352070;32;34503;-77
2021/12/25 10:42:23;;;;;;;22.08;12.75;;;;;;;11.67;66.25;98836.31;4351998;32;34090;-77
2021/12/25 10:44:54;;;;;;;20.70;12.77;;;;;;;11.60;66.37;98843.81;4363933;32;33223;-77
2021/12/25 10:47:30;;;;;;;24.37;12.05;;;;;;;11.61;66.25;98826.25;4365189;32;33851;-77
2021/12/25 10:50:14;;;;;;;18.98;10.73;;;;;;;11.45;66.33;98827.78;4354046;32;34615;-77
2021/12/25 10:52:46;;;;;;;15.27;9.48;;;;;;;11.63;65.63;98824.12;4366065;32;34049;-77
2021/12/25 10:55:19;;;;;;;14.27;8.98;;;;;;;11.62;65.28;98826.03;4354019;32;31966;-78
2021/12/25 10:57:58;;;;;;;16.50;9.77;;;;;;;11.61;65.14;98827.09;4366231;32;34454;-77
2021/12/25 11:00:32;;;;;;;15.88;8.85;;;;;;;11.63;64.92;98824.12;4353683;32;35288;-77
2021/12/25 11:03:07;;;;;;;13.45;7.85;;;;;;;11.61;64.70;98812.53;4353944;32;33303;-77
2021/12/25 11:05:44;;;;;;;16.60;9.98;;;;;;;11.47;65.09;98814.66;4353681;32;32047;-78
2021/12/25 11:08:14;;;;;;;;;;;;;;;11.48;64.83;98811.66;4354150;32;33887;-77
2021/12/25 11:10:54;;;;;;;21.55;12.85;;;;;;;11.67;64.30;98808.81;4365955;32;35428;-77
2021/12/25 11:13:28;;;;;;;13.40;7.75;;;;;;;11.71;64.20;98808.09;4365661;32;33816;-77
2021/12/25 11:16:18;;;;;;;12.95;7.12;;;;;;;11.71;64.25;98810.00;4365902;32;34331;-77
2021/12/25 11:19:08;;;;;;;11.27;6.60;;;;;;;11.72;64.17;98797.94;4354068;32;33693;-77
2021/12/25 11:21:52;;;;;;;11.02;6.32;;;;;;;11.81;64.04;98797.37;4353548;32;34047;-78
2021/12/25 11:24:37;;;;;;;10.60;5.95;;;;;;;11.70;64.56;98797.34;4353415;32;32387;-78
2021/12/25 11:27:07;;;;;;;9.32;5.50;;;;;;;11.66;64.73;98787.91;4365843;32;32985;-78
2021/12/25 11:29:37;;;;;;;8.73;5.12;;;;;;;11.52;64.99;98785.38;4365830;32;33454;-78
2021/12/25 11:32:11;;;;;;;10.57;5.20;;;;;;;11.78;64.21;98772.25;4365640;32;34503;-78
2021/12/25 11:34:44;;;;;;;9.75;5.15;;;;;;;11.75;64.42;98775.47;4366137;32;33898;-78
2021/12/25 11:37:18;;;;;;;9.52;5.32;;;;;;;11.82;64.48;98777.06;4353565;32;33484;-78
2021/12/25 11:39:52;;;;;;;8.38;4.20;;;;;;;11.86;64.39;98770.00;4353785;32;34594;-78
2021/12/25 11:42:26;;;;;;;7.62;4.22;;;;;;;11.83;64.25;98764.97;4365932;32;34374;-78
2021/12/25 11:45:00;;;;;;;8.85;4.87;;;;;;;11.89;64.10;98760.44;4365965;32;34690;-78
2021/12/25 11:47:32;;;;;;;10.50;4.20;;;;;;;11.78;63.65;98758.53;4366243;32;33438;-78
2021/12/25 11:50:24;;;;;;;8.93;4.55;;;;;;;11.90;63.52;98755.78;4365018;32;33491;-78
2021/12/25 11:53:07;;;;;;;11.48;6.65;;;;;;;11.97;63.61;98749.06;4367876;32;35240;-78
2021/12/25 11:58:35;;;;;;;23.42;11.68;;;;;;;11.99;64.72;98746.06;4380315;32;34818;-78
2021/12/25 12:01:49;;;;;;;11.90;5.87;;;;;;;12.02;64.68;98743.69;4380091;32;32325;-78
2021/12/25 12:04:21;;;;;;;8.98;5.25;;;;;;;12.10;64.42;98736.97;4379635;32;34320;-78
2021/12/25 12:06:53;;;;;;;9.32;4.35;;;;;;;12.13;64.27;98740.09;4367856;32;32961;-78
2021/12/25 12:09:50;;;;;;;8.07;4.65;;;;;;;12.14;64.12;98741.75;4394341;32;33523;-78
2021/12/25 12:12:23;;;;;;;7.07;3.70;;;;;;;12.16;63.91;98745.09;4367309;32;33317;-78
2021/12/25 12:15:17;;;;;;;7.97;3.90;;;;;;;12.17;63.94;98741.28;4381030;32;34163;-78
2021/12/25 12:17:51;;;;;;;;;;;;;;;12.23;63.83;98744.97;4368558;32;32540;-78
2021/12/25 12:20:38;;;;;;;7.62;4.10;;;;;;;12.26;63.83;98747.22;4368201;32;34895;-78
2021/12/25 12:24:22;;;;;;;7.25;4.30;;;;;;;12.33;63.79;98747.09;4379912;32;32944;-78
2021/12/25 12:26:45;;;;;;;6.75;3.65;;;;;;;12.30;64.00;98740.16;4393554;32;34467;-78
2021/12/25 12:29:19;;;;;;;8.77;4.50;;;;;;;12.37;63.87;98743.59;4380518;32;34572;-78
2021/12/25 12:31:49;;;;;;;11.07;5.80;;;;;;;12.36;63.94;98735.56;4367633;32;33259;-78
2021/12/25 12:34:29;;;;;;;9.98;5.10;;;;;;;12.35;64.10;98743.00;4380137;32;34917;-78
2021/12/25 12:37:15;;;;;;;9.45;5.07;;;;;;;12.40;64.03;98753.28;4380362;32;34456;-78
2021/12/25 12:40:02;;;;;;;12.77;7.20;;;;;;;12.42;63.94;98737.34;4380240;32;34003;-78
2021/12/25 12:42:47;;;;;;;35.08;23.35;;;;;;;12.38;64.17;98744.41;4380195;32;33218;-78
2021/12/25 12:45:33;;;;;;;13.43;7.65;;;;;;;12.39;63.98;98746.09;4380162;32;34549;-78
2021/12/25 12:48:22;;;;;;;11.60;7.05;;;;;;;12.40;64.13;98747.75;4380304;32;34084;-78
2021/12/25 12:50:57;;;;;;;10.25;5.85;;;;;;;12.39;64.14;98746.94;4380117;32;33833;-78
2021/12/25 12:53:25;;;;;;;8.40;4.55;;;;;;;12.32;64.37;98743.50;4368035;32;33491;-78
2021/12/25 12:56:05;;;;;;;8.43;4.35;;;;;;;12.31;64.21;98744.59;4380391;32;33650;-78
2021/12/25 12:58:38;;;;;;;8.90;3.80;;;;;;;12.33;63.92;98747.09;4380112;32;35484;-78
2021/12/25 13:01:11;;;;;;;9.77;4.25;;;;;;;12.31;63.64;98738.25;4380226;32;34224;-78
2021/12/25 13:03:43;;;;;;;164.82;91.43;;;;;;;12.14;63.67;98743.66;4380307;32;33413;-78
2021/12/25 13:06:13;;;;;;;15.85;8.70;;;;;;;12.30;63.38;98747.59;4380114;32;33680;-78